createdAt,value
2022-10-26T00:01:59.029Z,12.00
2022-10-26T00:04:27.097Z,12.00
2022-10-26T00:06:55.063Z,12.00
2022-10-26T00:09:26.589Z,12.00
2022-10-26T00:11:54.743Z,12.10
2022-10-26T00:14:27.833Z,12.20
2022-10-26T00:16:56.291Z,12.20
2022-10-26T00:19:28.190Z,12.20
2022-10-26T00:21:56.456Z,12.20
2022-10-26T00:24:24.732Z,12.30
2022-10-26T00:26:54.903Z,12.40
2022-10-26T00:29:23.381Z,12.60
2022-10-26T00:31:51.602Z,12.70
2022-10-26T00:34:19.778Z,12.60
2022-10-26T00:36:49.372Z,12.60
2022-10-26T00:39:17.541Z,12.50
2022-10-26T00:41:45.916Z,12.40
2022-10-26T00:44:51.127Z,12.40
2022-10-26T00:47:26.613Z,12.40
2022-10-26T00:49:57.083Z,12.40
2022-10-26T00:52:26.805Z,12.40
2022-10-26T00:54:55.086Z,12.30
2022-10-26T00:57:26.044Z,12.30
2022-10-26T00:59:56.697Z,12.30
2022-10-26T01:02:25.016Z,12.30
2022-10-26T01:04:54.820Z,12.30
2022-10-26T01:07:23.132Z,12.30
2022-10-26T01:09:53.078Z,12.30
2022-10-26T01:12:21.210Z,12.30
2022-10-26T01:14:49.422Z,12.40
2022-10-26T01:17:37.867Z,12.50
2022-10-26T01:20:45.993Z,12.50
2022-10-26T01:23:20.073Z,12.80
2022-10-26T01:26:09.553Z,12.90
2022-10-26T01:28:56.798Z,12.80
2022-10-26T01:31:32.878Z,12.90
2022-10-26T01:34:07.436Z,13.00
2022-10-26T01:36:42.417Z,13.00
2022-10-26T01:39:15.731Z,13.00
2022-10-26T01:41:48.974Z,12.80
2022-10-26T01:44:21.484Z,12.70
2022-10-26T01:46:53.016Z,12.60
2022-10-26T01:49:25.102Z,12.60
2022-10-26T01:51:53.243Z,12.60
2022-10-26T01:54:21.383Z,12.60
2022-10-26T01:56:52.381Z,12.60
2022-10-26T01:59:33.887Z,12.70
2022-10-26T02:02:32.115Z,12.70
2022-10-26T02:05:11.594Z,12.80
2022-10-26T02:07:46.596Z,12.80
2022-10-26T02:10:27.493Z,12.90
2022-10-26T02:13:02.605Z,13.00
2022-10-26T02:15:36.091Z,13.00
2022-10-26T02:18:11.523Z,13.10
2022-10-26T02:20:44.252Z,13.20
2022-10-26T02:23:14.607Z,13.30
2022-10-26T02:25:47.619Z,13.30
2022-10-26T02:28:19.052Z,13.30
2022-10-26T02:30:49.436Z,13.30
2022-10-26T02:33:20.501Z,13.30
2022-10-26T02:35:52.257Z,13.30
2022-10-26T02:38:24.392Z,13.30
2022-10-26T02:40:53.359Z,13.10
2022-10-26T02:43:23.260Z,12.90
2022-10-26T02:45:55.323Z,12.90
2022-10-26T02:48:28.144Z,12.60
2022-10-26T02:51:01.953Z,12.40
2022-10-26T02:53:34.734Z,12.40
2022-10-26T02:56:11.246Z,12.50
2022-10-26T02:58:43.538Z,12.50
2022-10-26T03:01:11.689Z,12.50
2022-10-26T03:03:41.376Z,12.60
2022-10-26T03:06:09.637Z,12.60
2022-10-26T03:08:37.855Z,12.70
2022-10-26T03:11:06.472Z,12.60
2022-10-26T03:13:34.618Z,12.60
2022-10-26T03:16:02.661Z,12.60
2022-10-26T03:18:30.677Z,12.60
2022-10-26T03:21:02.193Z,12.70
2022-10-26T03:23:30.283Z,12.90
2022-10-26T03:25:58.888Z,12.90
2022-10-26T03:28:27.381Z,12.90
2022-10-26T03:30:55.609Z,12.90
2022-10-26T03:33:27.025Z,12.90
2022-10-26T03:35:57.112Z,12.90
2022-10-26T03:38:26.874Z,13.00
2022-10-26T03:40:55.168Z,13.10
2022-10-26T03:43:25.943Z,13.10
2022-10-26T03:45:54.077Z,13.10
2022-10-26T03:48:22.305Z,13.10
2022-10-26T03:50:50.612Z,13.20
2022-10-26T03:53:18.689Z,13.10
2022-10-26T03:55:48.301Z,13.00
2022-10-26T03:58:16.529Z,13.00
2022-10-26T04:00:44.736Z,12.80
2022-10-26T04:03:12.849Z,12.60
2022-10-26T04:05:40.879Z,12.70
2022-10-26T04:08:10.198Z,12.50
2022-10-26T04:10:40.060Z,12.50
2022-10-26T04:13:10.800Z,12.50
2022-10-26T04:15:39.298Z,12.50
2022-10-26T04:18:07.428Z,12.40
2022-10-26T04:20:36.668Z,12.40
2022-10-26T04:23:07.423Z,12.50
2022-10-26T04:25:35.721Z,12.60
2022-10-26T04:28:05.972Z,12.70
2022-10-26T04:30:36.350Z,12.80
2022-10-26T04:33:04.567Z,12.80
2022-10-26T04:35:33.467Z,12.80
2022-10-26T04:38:02.776Z,12.70
2022-10-26T04:40:32.218Z,12.70
2022-10-26T04:43:00.717Z,12.90
2022-10-26T04:45:30.821Z,12.70
2022-10-26T04:48:06.340Z,12.70
2022-10-26T04:50:35.172Z,12.70
2022-10-26T04:53:04.935Z,12.70
2022-10-26T04:55:33.942Z,12.60
2022-10-26T04:58:05.193Z,12.60
2022-10-26T05:04:12.242Z,12.60
2022-10-26T05:06:40.481Z,12.60
2022-10-26T05:09:08.722Z,12.50
2022-10-26T05:11:36.873Z,12.30
2022-10-26T05:14:05.252Z,12.30
2022-10-26T05:16:33.591Z,12.40
2022-10-26T05:19:02.095Z,12.50
2022-10-26T05:21:31.963Z,12.50
2022-10-26T05:24:00.240Z,12.60
2022-10-26T05:26:28.703Z,12.60
2022-10-26T05:28:56.839Z,12.70
2022-10-26T05:31:28.494Z,12.60
2022-10-26T05:33:58.664Z,12.60
2022-10-26T05:36:26.963Z,12.60
2022-10-26T05:38:59.128Z,12.60
2022-10-26T05:41:27.352Z,12.60
2022-10-26T05:43:55.635Z,12.60
2022-10-26T05:48:54.729Z,13.10
2022-10-26T05:51:25.119Z,13.00
2022-10-26T05:53:55.410Z,12.90
2022-10-26T05:56:36.874Z,12.90
2022-10-26T05:59:06.177Z,13.00
2022-10-26T06:01:45.109Z,13.10
2022-10-26T06:04:23.969Z,12.90
2022-10-26T06:06:58.794Z,12.90
2022-10-26T06:09:27.893Z,12.80
2022-10-26T06:14:29.334Z,12.80
2022-10-26T06:17:13.098Z,12.80
2022-10-26T06:19:54.046Z,12.80
2022-10-26T06:22:37.758Z,12.70
2022-10-26T06:25:17.126Z,12.60
2022-10-26T06:27:57.406Z,12.50
2022-10-26T06:30:25.489Z,12.40
2022-10-26T06:33:05.802Z,12.40
2022-10-26T06:35:54.333Z,12.40
2022-10-26T06:38:24.402Z,12.50
2022-10-26T06:40:56.390Z,12.60
2022-10-26T06:43:31.088Z,12.60
2022-10-26T06:46:08.576Z,12.60
2022-10-26T06:48:46.784Z,12.70
2022-10-26T06:51:17.360Z,12.70
2022-10-26T06:53:51.236Z,12.80
2022-10-26T06:56:19.927Z,12.90
2022-10-26T06:58:51.029Z,13.00
2022-10-26T07:01:20.130Z,13.10
2022-10-26T07:03:48.552Z,13.00
2022-10-26T07:06:16.666Z,13.00
2022-10-26T07:08:44.938Z,13.00
2022-10-26T07:11:15.218Z,12.90
2022-10-26T07:13:44.326Z,13.00
2022-10-26T07:16:13.945Z,13.00
2022-10-26T07:18:42.052Z,12.90
2022-10-26T07:21:10.507Z,13.00
2022-10-26T07:23:38.649Z,13.00
2022-10-26T07:26:07.359Z,13.00
2022-10-26T07:28:36.528Z,13.00
2022-10-26T07:31:05.559Z,13.10
2022-10-26T07:33:38.045Z,13.20
2022-10-26T07:36:10.939Z,13.30
2022-10-26T07:38:42.958Z,13.50
2022-10-26T07:41:11.292Z,13.60
2022-10-26T07:43:39.384Z,13.60
2022-10-26T07:46:07.959Z,13.70
2022-10-26T07:48:38.595Z,13.70
2022-10-26T07:51:06.893Z,13.80
2022-10-26T07:53:35.479Z,13.80
2022-10-26T07:56:07.401Z,13.90
2022-10-26T07:58:36.412Z,14.00
2022-10-26T08:01:08.668Z,14.10
2022-10-26T08:03:38.495Z,14.00
2022-10-26T08:06:10.650Z,14.10
2022-10-26T08:08:46.391Z,14.10
2022-10-26T08:11:17.181Z,14.10
2022-10-26T08:13:45.644Z,14.10
2022-10-26T08:16:18.112Z,14.10
2022-10-26T08:18:49.148Z,14.20
2022-10-26T08:21:36.248Z,14.30
2022-10-26T08:24:09.420Z,14.30
2022-10-26T08:26:37.879Z,14.40
2022-10-26T08:29:07.533Z,14.50
2022-10-26T08:31:36.523Z,14.50
2022-10-26T08:34:06.068Z,14.40
2022-10-26T08:36:34.997Z,14.40
2022-10-26T08:39:03.525Z,14.30
2022-10-26T08:41:38.085Z,14.30
2022-10-26T08:44:18.147Z,14.40
2022-10-26T08:46:53.428Z,14.40
2022-10-26T08:49:26.580Z,14.40
2022-10-26T08:51:58.780Z,14.40
2022-10-26T08:54:38.333Z,14.40
2022-10-26T08:57:18.079Z,14.50
2022-10-26T08:59:51.983Z,14.60
2022-10-26T09:02:21.554Z,14.60
2022-10-26T09:04:51.563Z,14.60
2022-10-26T09:07:35.178Z,14.60
2022-10-26T09:10:15.047Z,14.70
2022-10-26T09:12:49.951Z,14.80
2022-10-26T09:15:30.230Z,15.00
2022-10-26T09:18:11.416Z,15.10
2022-10-26T09:21:05.292Z,15.30
2022-10-26T09:23:51.531Z,15.10
2022-10-26T09:26:30.126Z,15.50
2022-10-26T09:29:02.833Z,15.70
2022-10-26T09:31:34.142Z,15.70
2022-10-26T09:34:06.311Z,15.60
2022-10-26T09:36:37.075Z,15.70
2022-10-26T09:39:21.756Z,15.80
2022-10-26T09:41:58.552Z,16.10
2022-10-26T09:44:37.869Z,16.10
2022-10-26T09:47:14.666Z,16.00
2022-10-26T09:49:49.417Z,15.70
2022-10-26T09:52:21.979Z,15.80
2022-10-26T09:54:52.561Z,15.70
2022-10-26T09:57:23.597Z,16.00
2022-10-26T09:59:56.309Z,16.10
2022-10-26T10:02:38.502Z,16.20
2022-10-26T10:05:45.817Z,16.10
2022-10-26T10:08:20.913Z,16.30
2022-10-26T10:11:20.449Z,16.40
2022-10-26T10:13:53.007Z,16.80
2022-10-26T10:16:24.213Z,16.90
2022-10-26T10:18:57.532Z,16.80
2022-10-26T10:21:40.002Z,16.70
2022-10-26T10:24:29.884Z,16.70
2022-10-26T10:27:04.822Z,16.60
2022-10-26T10:29:35.000Z,16.40
2022-10-26T10:32:04.818Z,16.70
2022-10-26T10:34:36.197Z,16.70
2022-10-26T10:37:05.300Z,17.10
2022-10-26T10:39:40.917Z,17.20
2022-10-26T10:42:19.387Z,17.20
2022-10-26T10:44:51.814Z,17.20
2022-10-26T10:47:29.876Z,17.10
2022-10-26T10:50:02.301Z,17.00
2022-10-26T10:52:33.010Z,16.90
2022-10-26T10:55:24.184Z,16.90
2022-10-26T10:58:09.342Z,16.90
2022-10-26T11:00:38.646Z,16.70
2022-10-26T11:03:33.766Z,16.60
2022-10-26T11:06:11.598Z,16.70
2022-10-26T11:08:47.408Z,16.70
2022-10-26T11:11:21.426Z,16.70
2022-10-26T11:13:57.687Z,16.80
2022-10-26T11:16:31.248Z,16.80
2022-10-26T11:19:03.822Z,16.90
2022-10-26T11:21:33.674Z,17.00
2022-10-26T11:24:13.367Z,17.20
2022-10-26T11:26:47.769Z,17.30
2022-10-26T11:29:27.438Z,17.30
2022-10-26T11:32:02.593Z,17.10
2022-10-26T11:34:36.647Z,17.20
2022-10-26T11:37:10.568Z,17.30
2022-10-26T11:39:46.192Z,17.20
2022-10-26T11:42:27.433Z,17.30
2022-10-26T11:45:02.736Z,17.30
2022-10-26T11:47:39.789Z,17.30
2022-10-26T11:50:17.541Z,17.30
2022-10-26T11:52:50.743Z,17.30
2022-10-26T11:55:21.940Z,17.30
2022-10-26T11:57:53.870Z,17.40
2022-10-26T12:00:24.025Z,17.40
2022-10-26T12:02:57.304Z,17.50
2022-10-26T12:05:35.672Z,17.50
2022-10-26T12:08:09.207Z,17.50
2022-10-26T12:10:40.959Z,17.40
2022-10-26T12:13:21.771Z,17.40
2022-10-26T12:16:08.465Z,17.50
2022-10-26T12:18:55.080Z,17.60
2022-10-26T12:21:28.182Z,17.80
2022-10-26T12:23:58.956Z,17.80
2022-10-26T12:26:55.261Z,18.00
2022-10-26T12:30:11.766Z,18.10
2022-10-26T12:32:55.694Z,18.20
2022-10-26T12:35:38.287Z,18.10
2022-10-26T12:38:45.285Z,18.00
2022-10-26T12:41:22.945Z,18.00
2022-10-26T12:43:57.112Z,18.00
2022-10-26T12:46:46.571Z,18.00
2022-10-26T12:50:00.977Z,18.20
2022-10-26T12:52:49.997Z,18.20
2022-10-26T12:55:56.757Z,18.20
2022-10-26T12:58:52.099Z,18.20
2022-10-26T13:02:11.394Z,18.90
2022-10-26T13:05:11.164Z,18.70
2022-10-26T13:07:41.074Z,18.60
2022-10-26T13:10:21.500Z,18.80
2022-10-26T13:12:53.306Z,18.60
2022-10-26T13:15:27.037Z,18.60
2022-10-26T13:18:02.076Z,18.80
2022-10-26T13:20:33.929Z,19.10
2022-10-26T13:23:03.545Z,19.00
2022-10-26T13:25:32.797Z,18.90
2022-10-26T13:28:06.972Z,18.90
2022-10-26T13:30:49.963Z,19.00
2022-10-26T13:33:29.177Z,18.70
2022-10-26T13:36:07.506Z,19.20
2022-10-26T13:38:37.871Z,20.00
2022-10-26T13:41:28.363Z,19.20
2022-10-26T13:43:58.525Z,19.10
2022-10-26T13:46:30.950Z,19.10
2022-10-26T13:49:09.070Z,19.00
2022-10-26T13:51:44.187Z,19.10
2022-10-26T13:54:26.748Z,19.20
2022-10-26T13:57:14.026Z,19.10
2022-10-26T13:59:46.613Z,19.10
2022-10-26T14:02:21.211Z,19.10
2022-10-26T14:04:54.141Z,19.20
2022-10-26T14:07:30.806Z,19.20
2022-10-26T14:10:03.167Z,19.10
2022-10-26T14:12:31.957Z,19.10
2022-10-26T14:15:07.520Z,19.10
2022-10-26T14:17:35.905Z,19.10
2022-10-26T14:20:05.873Z,19.00
2022-10-26T14:22:38.500Z,19.00
2022-10-26T14:25:26.689Z,19.10
2022-10-26T14:28:22.755Z,19.20
2022-10-26T14:30:52.962Z,19.20
2022-10-26T14:33:28.176Z,19.30
2022-10-26T14:35:58.313Z,19.30
2022-10-26T14:38:31.191Z,19.50
2022-10-26T14:41:03.324Z,19.60
2022-10-26T14:43:33.042Z,19.60
2022-10-26T14:46:01.621Z,19.70
2022-10-26T14:48:32.264Z,19.70
2022-10-26T14:51:02.598Z,19.60
2022-10-26T14:53:38.518Z,19.50
2022-10-26T14:56:19.325Z,19.30
2022-10-26T14:58:48.606Z,19.30
2022-10-26T15:01:30.341Z,19.20
2022-10-26T15:04:04.470Z,19.30
2022-10-26T15:06:47.668Z,19.20
2022-10-26T15:09:40.320Z,19.20
2022-10-26T15:12:20.959Z,19.10
2022-10-26T15:14:50.919Z,19.10
2022-10-26T15:17:24.360Z,19.10
2022-10-26T15:19:53.698Z,19.00
2022-10-26T15:22:30.967Z,19.00
2022-10-26T15:25:06.914Z,19.00
2022-10-26T15:27:37.683Z,18.90
2022-10-26T15:30:24.439Z,18.90
2022-10-26T15:32:53.784Z,18.90
2022-10-26T15:35:31.010Z,18.80
2022-10-26T15:38:01.030Z,18.70
2022-10-26T15:40:36.931Z,18.60
2022-10-26T15:43:07.187Z,18.60
2022-10-26T15:45:40.040Z,18.50
2022-10-26T15:48:20.786Z,18.30
2022-10-26T15:50:49.518Z,18.20
2022-10-26T15:53:21.635Z,18.00
2022-10-26T15:55:53.642Z,17.80
2022-10-26T15:58:23.559Z,17.90
2022-10-26T16:00:52.028Z,17.60
2022-10-26T16:03:23.645Z,17.50
2022-10-26T16:05:58.345Z,17.40
2022-10-26T16:08:29.278Z,17.50
2022-10-26T16:10:59.400Z,17.30
2022-10-26T16:15:55.920Z,17.20
2022-10-26T16:18:24.079Z,17.10
2022-10-26T16:23:20.761Z,17.00
2022-10-26T16:25:49.009Z,16.80
2022-10-26T16:28:18.784Z,16.70
2022-10-26T16:30:47.001Z,16.50
2022-10-26T16:33:15.522Z,16.60
2022-10-26T16:35:44.660Z,16.50
2022-10-26T16:38:12.916Z,16.50
2022-10-26T16:40:43.209Z,16.40
2022-10-26T16:43:11.675Z,16.50
2022-10-26T16:45:42.787Z,16.70
2022-10-26T16:48:15.147Z,16.80
2022-10-26T16:50:43.850Z,16.40
2022-10-26T16:53:12.005Z,16.60
2022-10-26T16:55:40.652Z,16.70
2022-10-26T16:58:10.176Z,16.40
2022-10-26T17:00:38.754Z,16.20
2022-10-26T17:03:08.306Z,16.10
2022-10-26T17:05:36.400Z,16.10
2022-10-26T17:08:04.607Z,16.10
2022-10-26T17:10:33.372Z,16.00
2022-10-26T17:13:01.629Z,15.90
2022-10-26T17:15:30.736Z,15.80
2022-10-26T17:17:59.021Z,15.70
2022-10-26T17:20:30.753Z,15.60
2022-10-26T17:23:00.817Z,15.50
2022-10-26T17:25:31.463Z,15.50
2022-10-26T17:28:06.195Z,15.50
2022-10-26T17:30:37.159Z,15.30
2022-10-26T17:33:10.274Z,15.40
2022-10-26T17:35:43.750Z,15.30
2022-10-26T17:38:14.654Z,15.30
2022-10-26T17:40:46.409Z,15.30
2022-10-26T17:43:18.487Z,15.00
2022-10-26T17:45:47.915Z,15.00
2022-10-26T17:48:18.088Z,15.00
2022-10-26T17:50:49.056Z,14.90
2022-10-26T17:53:22.231Z,15.00
2022-10-26T17:56:02.130Z,14.90
2022-10-26T17:58:32.932Z,15.30
2022-10-26T18:01:03.431Z,15.40
2022-10-26T18:03:34.327Z,15.40
2022-10-26T18:06:09.134Z,15.40
2022-10-26T18:08:40.761Z,15.20
2022-10-26T18:11:15.853Z,15.20
2022-10-26T18:13:45.431Z,15.00
2022-10-26T18:16:18.053Z,14.80
2022-10-26T18:18:51.332Z,14.70
2022-10-26T18:21:23.402Z,15.00
2022-10-26T18:23:54.929Z,14.30
2022-10-26T18:26:29.959Z,14.30
2022-10-26T18:29:00.366Z,14.30
2022-10-26T18:31:32.020Z,14.40
2022-10-26T18:34:04.987Z,14.40
2022-10-26T18:41:43.838Z,14.10
2022-10-26T18:44:14.806Z,14.00
2022-10-26T18:52:04.638Z,13.60
2022-10-26T18:54:38.508Z,13.60
2022-10-26T18:57:15.433Z,13.70
2022-10-26T18:59:53.956Z,13.70
2022-10-26T19:02:24.634Z,13.70
2022-10-26T19:04:54.262Z,13.70
2022-10-26T19:07:25.013Z,13.70
2022-10-26T19:09:54.001Z,13.60
2022-10-26T19:12:23.746Z,13.60
2022-10-26T19:32:31.469Z,13.50
2022-10-26T19:35:11.465Z,13.60
2022-10-26T19:40:14.749Z,13.40
2022-10-26T19:52:50.388Z,13.00
2022-10-26T19:55:19.747Z,12.90
2022-10-26T19:57:49.329Z,13.40
2022-10-26T20:00:19.385Z,13.30
2022-10-26T20:02:49.571Z,13.30
2022-10-26T20:05:20.362Z,13.30
2022-10-26T20:07:50.571Z,13.40
2022-10-26T20:12:48.681Z,13.40
2022-10-26T20:15:25.112Z,13.30
2022-10-26T20:17:57.990Z,13.30
2022-10-26T20:20:26.482Z,13.20
2022-10-26T20:23:02.970Z,13.10
2022-10-26T20:25:34.785Z,13.20
2022-10-26T20:28:03.419Z,13.20
2022-10-26T20:30:32.509Z,13.10
2022-10-26T20:33:03.035Z,12.90
2022-10-26T20:35:34.546Z,12.80
2022-10-26T20:38:05.450Z,12.60
2022-10-26T20:40:34.761Z,12.50
2022-10-26T20:45:33.747Z,12.60
2022-10-26T20:48:02.694Z,12.70
2022-10-26T20:50:32.552Z,12.60
2022-10-26T20:53:06.581Z,12.80
2022-10-26T20:55:42.449Z,12.80
2022-10-26T20:58:16.139Z,12.90
2022-10-26T21:00:51.344Z,12.70
2022-10-26T21:05:52.241Z,12.90
2022-10-26T21:08:28.621Z,13.10
2022-10-26T21:10:57.441Z,13.30
2022-10-26T21:15:55.706Z,13.30
2022-10-26T21:18:24.377Z,12.90
2022-10-26T21:23:34.709Z,12.60
2022-10-26T21:31:22.080Z,12.60
2022-10-26T21:38:57.341Z,12.50
2022-10-26T21:44:03.461Z,12.40
2022-10-26T21:46:38.303Z,12.10
2022-10-26T21:49:06.513Z,12.00
2022-10-26T21:51:35.236Z,11.90
2022-10-26T21:54:05.424Z,11.90
2022-10-26T21:56:33.648Z,11.90
2022-10-26T21:59:02.407Z,11.90
2022-10-26T22:01:31.709Z,11.80
2022-10-26T22:04:00.090Z,11.90
2022-10-26T22:06:28.379Z,11.90
2022-10-26T22:08:56.547Z,11.90
2022-10-26T22:11:26.506Z,12.00
2022-10-26T22:13:54.818Z,12.00
2022-10-26T22:16:24.721Z,12.10
2022-10-26T22:18:54.830Z,12.00
2022-10-26T22:23:52.700Z,12.00
2022-10-26T22:26:23.273Z,12.00
2022-10-26T22:28:55.076Z,12.00
2022-10-26T22:31:25.943Z,12.00
2022-10-26T22:33:54.624Z,11.90
2022-10-26T22:36:24.103Z,11.90
2022-10-26T22:38:53.339Z,11.60
2022-10-26T22:41:23.218Z,11.50
2022-10-26T22:43:52.846Z,11.50
2022-10-26T22:46:23.113Z,11.60
2022-10-26T22:48:55.498Z,11.70
2022-10-26T22:51:24.953Z,11.80
2022-10-26T22:53:54.496Z,11.90
2022-10-26T22:59:00.176Z,11.60
2022-10-26T23:01:31.731Z,11.70
2022-10-26T23:04:00.966Z,11.60
2022-10-26T23:06:33.270Z,11.70
2022-10-26T23:09:03.087Z,11.80
2022-10-26T23:14:03.858Z,12.10
2022-10-26T23:16:33.911Z,12.10
2022-10-26T23:19:02.614Z,12.00
2022-10-26T23:23:59.299Z,11.90
2022-10-26T23:26:27.608Z,12.00
2022-10-26T23:28:56.178Z,12.10
2022-10-26T23:31:30.566Z,12.10
2022-10-26T23:33:58.618Z,12.20
2022-10-26T23:36:26.961Z,12.20
2022-10-26T23:38:55.178Z,12.10
2022-10-26T23:46:20.016Z,11.80
2022-10-26T23:48:49.554Z,11.80
2022-10-26T23:51:19.819Z,11.70
2022-10-26T23:53:47.944Z,11.50
2022-10-26T23:56:16.118Z,11.50
2022-10-26T23:58:50.292Z,11.50
